sensor_id;sensor_type;location;lat;lon;timestamp;temperature;humidity
14517;DHT22;7344;50.864;4.362;2022-12-18T00:02:15;-3.40;99.90
14517;DHT22;7344;50.864;4.362;2022-12-18T00:04:41;-3.40;99.90
14517;DHT22;7344;50.864;4.362;2022-12-18T00:07:06;-3.30;99.90
14517;DHT22;7344;50.864;4.362;2022-12-18T00:09:32;-3.40;99.90
14517;DHT22;7344;50.864;4.362;2022-12-18T00:11:57;-3.40;99.90
14517;DHT22;7344;50.864;4.362;2022-12-18T00:14:23;-3.40;99.90
14517;DHT22;7344;50.864;4.362;2022-12-18T00:16:49;-3.50;99.90
14517;DHT22;7344;50.864;4.362;2022-12-18T00:19:15;-3.60;99.90
14517;DHT22;7344;50.864;4.362;2022-12-18T00:21:41;-3.70;99.90
14517;DHT22;7344;50.864;4.362;2022-12-18T00:24:08;-3.80;99.90
14517;DHT22;7344;50.864;4.362;2022-12-18T00:26:36;-3.80;99.90
14517;DHT22;7344;50.864;4.362;2022-12-18T00:29:05;-3.80;99.90
14517;DHT22;7344;50.864;4.362;2022-12-18T00:31:32;-3.70;99.90
14517;DHT22;7344;50.864;4.362;2022-12-18T00:33:58;-3.70;99.90
14517;DHT22;7344;50.864;4.362;2022-12-18T00:36:26;-3.70;99.90
14517;DHT22;7344;50.864;4.362;2022-12-18T00:38:53;-3.70;99.90
14517;DHT22;7344;50.864;4.362;2022-12-18T00:41:19;-3.70;99.90
14517;DHT22;7344;50.864;4.362;2022-12-18T00:44:05;-3.70;99.90
14517;DHT22;7344;50.864;4.362;2022-12-18T00:46:32;-3.70;99.90
14517;DHT22;7344;50.864;4.362;2022-12-18T00:48:58;-3.70;99.90
14517;DHT22;7344;50.864;4.362;2022-12-18T00:51:24;-3.60;99.90
14517;DHT22;7344;50.864;4.362;2022-12-18T00:53:50;-3.70;99.90
14517;DHT22;7344;50.864;4.362;2022-12-18T00:56:15;-3.80;99.90
14517;DHT22;7344;50.864;4.362;2022-12-18T00:58:41;-3.80;99.90
14517;DHT22;7344;50.864;4.362;2022-12-18T01:01:07;-3.90;99.90
14517;DHT22;7344;50.864;4.362;2022-12-18T01:03:32;-3.80;99.90
14517;DHT22;7344;50.864;4.362;2022-12-18T01:05:58;-3.90;99.90
14517;DHT22;7344;50.864;4.362;2022-12-18T01:08:24;-3.90;99.90
14517;DHT22;7344;50.864;4.362;2022-12-18T01:10:50;-3.80;99.90
14517;DHT22;7344;50.864;4.362;2022-12-18T01:13:16;-3.80;99.90
14517;DHT22;7344;50.864;4.362;2022-12-18T01:15:51;-3.80;99.90
14517;DHT22;7344;50.864;4.362;2022-12-18T01:18:18;-3.70;99.90
14517;DHT22;7344;50.864;4.362;2022-12-18T01:20:43;-3.70;99.90
14517;DHT22;7344;50.864;4.362;2022-12-18T01:23:09;-3.70;99.90
14517;DHT22;7344;50.864;4.362;2022-12-18T01:25:38;-3.80;99.90
14517;DHT22;7344;50.864;4.362;2022-12-18T01:28:03;-3.80;99.90
14517;DHT22;7344;50.864;4.362;2022-12-18T01:30:29;-3.90;99.90
14517;DHT22;7344;50.864;4.362;2022-12-18T01:32:54;-4.00;99.90
14517;DHT22;7344;50.864;4.362;2022-12-18T01:35:20;-4.00;99.90
14517;DHT22;7344;50.864;4.362;2022-12-18T01:37:46;-4.00;99.90
14517;DHT22;7344;50.864;4.362;2022-12-18T01:40:11;-4.00;99.90
14517;DHT22;7344;50.864;4.362;2022-12-18T01:42:37;-3.90;99.90
14517;DHT22;7344;50.864;4.362;2022-12-18T01:47:57;-3.80;99.90
14517;DHT22;7344;50.864;4.362;2022-12-18T01:50:32;-3.80;99.90
14517;DHT22;7344;50.864;4.362;2022-12-18T01:55:46;-3.90;99.90
14517;DHT22;7344;50.864;4.362;2022-12-18T01:58:12;-3.90;99.90
14517;DHT22;7344;50.864;4.362;2022-12-18T02:00:38;-3.90;99.90
14517;DHT22;7344;50.864;4.362;2022-12-18T02:03:04;-3.90;99.90
14517;DHT22;7344;50.864;4.362;2022-12-18T02:08:24;-3.90;99.90
14517;DHT22;7344;50.864;4.362;2022-12-18T02:11:08;-4.00;99.90
14517;DHT22;7344;50.864;4.362;2022-12-18T02:19:16;-4.20;99.90
14517;DHT22;7344;50.864;4.362;2022-12-18T02:21:56;-4.10;99.90
14517;DHT22;7344;50.864;4.362;2022-12-18T02:27:08;-4.10;99.90
14517;DHT22;7344;50.864;4.362;2022-12-18T02:29:46;-4.10;99.90
14517;DHT22;7344;50.864;4.362;2022-12-18T02:32:15;-4.00;99.90
14517;DHT22;7344;50.864;4.362;2022-12-18T02:34:43;-4.10;99.90
14517;DHT22;7344;50.864;4.362;2022-12-18T02:37:13;-4.10;99.90
14517;DHT22;7344;50.864;4.362;2022-12-18T02:39:42;-4.10;99.90
14517;DHT22;7344;50.864;4.362;2022-12-18T02:42:08;-4.10;99.90
14517;DHT22;7344;50.864;4.362;2022-12-18T02:44:35;-4.10;99.90
14517;DHT22;7344;50.864;4.362;2022-12-18T02:47:10;-4.10;99.90
14517;DHT22;7344;50.864;4.362;2022-12-18T02:49:53;-4.00;99.90
14517;DHT22;7344;50.864;4.362;2022-12-18T02:58:12;-4.00;99.90
14517;DHT22;7344;50.864;4.362;2022-12-18T03:03:51;-4.10;99.90
14517;DHT22;7344;50.864;4.362;2022-12-18T03:06:33;-4.10;99.90
14517;DHT22;7344;50.864;4.362;2022-12-18T03:09:06;-4.00;99.90
14517;DHT22;7344;50.864;4.362;2022-12-18T03:11:34;-3.90;99.90
14517;DHT22;7344;50.864;4.362;2022-12-18T03:14:23;-3.90;99.90
14517;DHT22;7344;50.864;4.362;2022-12-18T03:16:52;-4.00;99.90
14517;DHT22;7344;50.864;4.362;2022-12-18T03:19:22;-4.00;99.90
14517;DHT22;7344;50.864;4.362;2022-12-18T03:21:54;-4.00;99.90
14517;DHT22;7344;50.864;4.362;2022-12-18T03:24:21;-4.10;99.90
14517;DHT22;7344;50.864;4.362;2022-12-18T03:26:52;-4.10;99.90
14517;DHT22;7344;50.864;4.362;2022-12-18T03:29:24;-4.10;99.90
14517;DHT22;7344;50.864;4.362;2022-12-18T03:31:56;-4.10;99.90
14517;DHT22;7344;50.864;4.362;2022-12-18T03:34:29;-4.10;99.90
14517;DHT22;7344;50.864;4.362;2022-12-18T03:36:56;-4.10;99.90
14517;DHT22;7344;50.864;4.362;2022-12-18T03:39:23;-4.20;99.90
14517;DHT22;7344;50.864;4.362;2022-12-18T03:44:42;-4.40;99.90
14517;DHT22;7344;50.864;4.362;2022-12-18T03:50:17;-4.40;99.90
14517;DHT22;7344;50.864;4.362;2022-12-18T03:52:52;-4.60;99.90
14517;DHT22;7344;50.864;4.362;2022-12-18T03:55:21;-4.60;99.90
14517;DHT22;7344;50.864;4.362;2022-12-18T03:57:48;-4.60;99.90
14517;DHT22;7344;50.864;4.362;2022-12-18T04:00:17;-4.60;99.90
14517;DHT22;7344;50.864;4.362;2022-12-18T04:02:47;-4.50;99.90
14517;DHT22;7344;50.864;4.362;2022-12-18T04:05:15;-4.60;99.90
14517;DHT22;7344;50.864;4.362;2022-12-18T04:07:42;-4.60;99.90
14517;DHT22;7344;50.864;4.362;2022-12-18T04:10:09;-4.50;99.90
14517;DHT22;7344;50.864;4.362;2022-12-18T04:12:37;-4.60;99.90
14517;DHT22;7344;50.864;4.362;2022-12-18T04:15:03;-4.60;99.90
14517;DHT22;7344;50.864;4.362;2022-12-18T04:17:28;-4.60;99.90
14517;DHT22;7344;50.864;4.362;2022-12-18T04:19:54;-4.60;99.90
14517;DHT22;7344;50.864;4.362;2022-12-18T04:22:20;-4.60;99.90
14517;DHT22;7344;50.864;4.362;2022-12-18T04:24:45;-4.70;99.90
14517;DHT22;7344;50.864;4.362;2022-12-18T04:27:11;-4.70;99.90
14517;DHT22;7344;50.864;4.362;2022-12-18T04:29:36;-4.70;99.90
14517;DHT22;7344;50.864;4.362;2022-12-18T04:32:02;-4.70;99.90
14517;DHT22;7344;50.864;4.362;2022-12-18T04:34:28;-4.60;99.90
14517;DHT22;7344;50.864;4.362;2022-12-18T04:36:53;-4.70;99.90
14517;DHT22;7344;50.864;4.362;2022-12-18T04:39:19;-4.70;99.90
14517;DHT22;7344;50.864;4.362;2022-12-18T04:41:44;-4.70;99.90
14517;DHT22;7344;50.864;4.362;2022-12-18T04:44:10;-4.70;99.90
14517;DHT22;7344;50.864;4.362;2022-12-18T04:46:36;-4.60;99.90
14517;DHT22;7344;50.864;4.362;2022-12-18T04:49:01;-4.60;99.90
14517;DHT22;7344;50.864;4.362;2022-12-18T04:51:27;-4.60;99.90
14517;DHT22;7344;50.864;4.362;2022-12-18T04:53:53;-4.60;99.90
14517;DHT22;7344;50.864;4.362;2022-12-18T04:56:19;-4.60;99.90
14517;DHT22;7344;50.864;4.362;2022-12-18T04:58:44;-4.60;99.90
14517;DHT22;7344;50.864;4.362;2022-12-18T05:01:11;-4.50;99.90
14517;DHT22;7344;50.864;4.362;2022-12-18T05:03:37;-4.50;99.90
14517;DHT22;7344;50.864;4.362;2022-12-18T05:06:04;-4.50;99.90
14517;DHT22;7344;50.864;4.362;2022-12-18T05:08:30;-4.50;99.90
14517;DHT22;7344;50.864;4.362;2022-12-18T05:11:14;-4.50;99.90
14517;DHT22;7344;50.864;4.362;2022-12-18T05:13:42;-4.40;99.90
14517;DHT22;7344;50.864;4.362;2022-12-18T05:16:08;-4.40;99.90
14517;DHT22;7344;50.864;4.362;2022-12-18T05:18:34;-4.30;99.90
14517;DHT22;7344;50.864;4.362;2022-12-18T05:21:00;-4.30;99.90
14517;DHT22;7344;50.864;4.362;2022-12-18T05:23:26;-4.40;99.90
14517;DHT22;7344;50.864;4.362;2022-12-18T05:25:52;-4.40;99.90
14517;DHT22;7344;50.864;4.362;2022-12-18T05:28:18;-4.40;99.90
14517;DHT22;7344;50.864;4.362;2022-12-18T05:30:48;-4.40;99.90
14517;DHT22;7344;50.864;4.362;2022-12-18T05:33:14;-4.40;99.90
14517;DHT22;7344;50.864;4.362;2022-12-18T05:35:40;-4.40;99.90
14517;DHT22;7344;50.864;4.362;2022-12-18T05:38:06;-4.40;99.90
14517;DHT22;7344;50.864;4.362;2022-12-18T05:40:31;-4.40;99.90
14517;DHT22;7344;50.864;4.362;2022-12-18T05:42:57;-4.40;99.90
14517;DHT22;7344;50.864;4.362;2022-12-18T05:45:23;-4.40;99.90
14517;DHT22;7344;50.864;4.362;2022-12-18T05:47:48;-4.40;99.90
14517;DHT22;7344;50.864;4.362;2022-12-18T05:50:14;-4.40;99.90
14517;DHT22;7344;50.864;4.362;2022-12-18T05:52:39;-4.40;99.90
14517;DHT22;7344;50.864;4.362;2022-12-18T05:55:05;-4.50;99.90
14517;DHT22;7344;50.864;4.362;2022-12-18T05:57:31;-4.50;99.90
14517;DHT22;7344;50.864;4.362;2022-12-18T05:59:56;-4.50;99.90
14517;DHT22;7344;50.864;4.362;2022-12-18T06:02:22;-4.50;99.90
14517;DHT22;7344;50.864;4.362;2022-12-18T06:04:47;-4.50;99.90
14517;DHT22;7344;50.864;4.362;2022-12-18T06:07:13;-4.40;99.90
14517;DHT22;7344;50.864;4.362;2022-12-18T06:09:38;-4.50;99.90
14517;DHT22;7344;50.864;4.362;2022-12-18T06:12:04;-4.60;99.90
14517;DHT22;7344;50.864;4.362;2022-12-18T06:14:30;-4.60;99.90
14517;DHT22;7344;50.864;4.362;2022-12-18T06:16:56;-4.70;99.90
14517;DHT22;7344;50.864;4.362;2022-12-18T06:19:21;-4.60;99.90
14517;DHT22;7344;50.864;4.362;2022-12-18T06:21:47;-4.60;99.90
14517;DHT22;7344;50.864;4.362;2022-12-18T06:24:13;-4.60;99.90
14517;DHT22;7344;50.864;4.362;2022-12-18T06:26:38;-4.60;99.90
14517;DHT22;7344;50.864;4.362;2022-12-18T06:29:04;-4.60;99.90
14517;DHT22;7344;50.864;4.362;2022-12-18T06:31:30;-4.60;99.90
14517;DHT22;7344;50.864;4.362;2022-12-18T06:33:55;-4.50;99.90
14517;DHT22;7344;50.864;4.362;2022-12-18T06:36:21;-4.40;99.90
14517;DHT22;7344;50.864;4.362;2022-12-18T06:38:47;-4.60;99.90
14517;DHT22;7344;50.864;4.362;2022-12-18T06:41:18;-4.50;99.90
14517;DHT22;7344;50.864;4.362;2022-12-18T06:43:44;-4.60;99.90
14517;DHT22;7344;50.864;4.362;2022-12-18T06:46:10;-4.60;99.90
14517;DHT22;7344;50.864;4.362;2022-12-18T06:48:36;-4.60;99.90
14517;DHT22;7344;50.864;4.362;2022-12-18T06:51:02;-4.60;99.90
14517;DHT22;7344;50.864;4.362;2022-12-18T06:53:28;-4.60;99.90
14517;DHT22;7344;50.864;4.362;2022-12-18T06:56:06;-4.60;99.90
14517;DHT22;7344;50.864;4.362;2022-12-18T06:58:32;-4.60;99.90
14517;DHT22;7344;50.864;4.362;2022-12-18T07:01:06;-4.60;99.90
14517;DHT22;7344;50.864;4.362;2022-12-18T07:03:32;-4.50;99.90
14517;DHT22;7344;50.864;4.362;2022-12-18T07:05:57;-4.40;99.90
14517;DHT22;7344;50.864;4.362;2022-12-18T07:08:23;-4.30;99.90
14517;DHT22;7344;50.864;4.362;2022-12-18T07:10:48;-4.30;99.90
14517;DHT22;7344;50.864;4.362;2022-12-18T07:13:15;-4.40;99.90
14517;DHT22;7344;50.864;4.362;2022-12-18T07:15:42;-4.30;99.90
14517;DHT22;7344;50.864;4.362;2022-12-18T07:18:08;-4.30;99.90
14517;DHT22;7344;50.864;4.362;2022-12-18T07:20:33;-4.20;99.90
14517;DHT22;7344;50.864;4.362;2022-12-18T07:23:02;-4.20;99.90
14517;DHT22;7344;50.864;4.362;2022-12-18T07:25:27;-4.20;99.90
14517;DHT22;7344;50.864;4.362;2022-12-18T07:27:54;-4.20;99.90
14517;DHT22;7344;50.864;4.362;2022-12-18T07:30:20;-4.20;99.90
14517;DHT22;7344;50.864;4.362;2022-12-18T07:32:45;-4.20;99.90
14517;DHT22;7344;50.864;4.362;2022-12-18T07:35:11;-4.20;99.90
14517;DHT22;7344;50.864;4.362;2022-12-18T07:37:36;-4.20;99.90
14517;DHT22;7344;50.864;4.362;2022-12-18T07:40:02;-4.10;99.90
14517;DHT22;7344;50.864;4.362;2022-12-18T07:42:28;-4.10;99.90
14517;DHT22;7344;50.864;4.362;2022-12-18T07:44:57;-4.00;99.90
14517;DHT22;7344;50.864;4.362;2022-12-18T07:47:23;-4.10;99.90
14517;DHT22;7344;50.864;4.362;2022-12-18T07:49:48;-4.10;99.90
14517;DHT22;7344;50.864;4.362;2022-12-18T07:52:14;-4.10;99.90
14517;DHT22;7344;50.864;4.362;2022-12-18T07:54:39;-4.20;99.90
14517;DHT22;7344;50.864;4.362;2022-12-18T07:57:08;-4.10;99.90
14517;DHT22;7344;50.864;4.362;2022-12-18T07:59:34;-4.00;99.90
14517;DHT22;7344;50.864;4.362;2022-12-18T08:02:00;-4.00;99.90
14517;DHT22;7344;50.864;4.362;2022-12-18T08:04:25;-4.00;99.90
14517;DHT22;7344;50.864;4.362;2022-12-18T08:06:51;-3.90;99.90
14517;DHT22;7344;50.864;4.362;2022-12-18T08:09:17;-3.70;99.90
14517;DHT22;7344;50.864;4.362;2022-12-18T08:11:43;-3.60;99.90
14517;DHT22;7344;50.864;4.362;2022-12-18T08:14:09;-3.30;99.90
14517;DHT22;7344;50.864;4.362;2022-12-18T08:16:35;-3.20;99.90
14517;DHT22;7344;50.864;4.362;2022-12-18T08:19:01;-2.80;99.90
14517;DHT22;7344;50.864;4.362;2022-12-18T08:21:28;-2.60;99.90
14517;DHT22;7344;50.864;4.362;2022-12-18T08:23:57;-2.30;99.90
14517;DHT22;7344;50.864;4.362;2022-12-18T08:26:25;-2.10;99.90
14517;DHT22;7344;50.864;4.362;2022-12-18T08:28:51;-1.80;99.90
14517;DHT22;7344;50.864;4.362;2022-12-18T08:31:18;-1.60;99.90
14517;DHT22;7344;50.864;4.362;2022-12-18T08:33:43;-1.40;99.90
14517;DHT22;7344;50.864;4.362;2022-12-18T08:36:09;-1.00;99.90
14517;DHT22;7344;50.864;4.362;2022-12-18T08:38:35;-0.50;99.90
14517;DHT22;7344;50.864;4.362;2022-12-18T08:41:06;0.00;99.90
14517;DHT22;7344;50.864;4.362;2022-12-18T08:43:32;0.30;99.90
14517;DHT22;7344;50.864;4.362;2022-12-18T08:46:21;0.60;99.90
14517;DHT22;7344;50.864;4.362;2022-12-18T08:48:47;0.80;99.90
14517;DHT22;7344;50.864;4.362;2022-12-18T08:51:15;0.80;99.90
14517;DHT22;7344;50.864;4.362;2022-12-18T08:53:40;0.80;99.90
14517;DHT22;7344;50.864;4.362;2022-12-18T08:56:07;0.80;99.90
14517;DHT22;7344;50.864;4.362;2022-12-18T08:58:32;0.60;99.90
14517;DHT22;7344;50.864;4.362;2022-12-18T09:01:06;0.50;99.90
14517;DHT22;7344;50.864;4.362;2022-12-18T09:03:32;0.80;99.90
14517;DHT22;7344;50.864;4.362;2022-12-18T09:05:58;1.20;99.90
14517;DHT22;7344;50.864;4.362;2022-12-18T09:08:25;1.20;99.90
14517;DHT22;7344;50.864;4.362;2022-12-18T09:10:50;1.20;99.90
14517;DHT22;7344;50.864;4.362;2022-12-18T09:13:16;1.20;99.90
14517;DHT22;7344;50.864;4.362;2022-12-18T09:15:44;1.20;99.90
14517;DHT22;7344;50.864;4.362;2022-12-18T09:18:14;1.00;99.90
14517;DHT22;7344;50.864;4.362;2022-12-18T09:20:39;1.00;99.90
14517;DHT22;7344;50.864;4.362;2022-12-18T09:23:06;0.90;99.90
14517;DHT22;7344;50.864;4.362;2022-12-18T09:25:32;0.80;99.90
14517;DHT22;7344;50.864;4.362;2022-12-18T09:28:18;0.80;99.90
14517;DHT22;7344;50.864;4.362;2022-12-18T09:30:48;0.80;99.90
14517;DHT22;7344;50.864;4.362;2022-12-18T09:33:15;0.80;99.90
14517;DHT22;7344;50.864;4.362;2022-12-18T09:35:43;0.90;99.90
14517;DHT22;7344;50.864;4.362;2022-12-18T09:38:13;0.90;99.90
14517;DHT22;7344;50.864;4.362;2022-12-18T09:40:49;0.80;99.90
14517;DHT22;7344;50.864;4.362;2022-12-18T09:43:18;1.00;99.90
14517;DHT22;7344;50.864;4.362;2022-12-18T09:45:51;1.00;99.90
14517;DHT22;7344;50.864;4.362;2022-12-18T09:48:40;1.10;99.90
14517;DHT22;7344;50.864;4.362;2022-12-18T09:51:32;1.20;99.90
14517;DHT22;7344;50.864;4.362;2022-12-18T09:54:03;1.10;99.90
14517;DHT22;7344;50.864;4.362;2022-12-18T09:56:35;1.10;99.90
14517;DHT22;7344;50.864;4.362;2022-12-18T09:59:03;1.00;99.90
14517;DHT22;7344;50.864;4.362;2022-12-18T10:01:31;1.00;99.90
14517;DHT22;7344;50.864;4.362;2022-12-18T10:03:57;0.90;99.90
14517;DHT22;7344;50.864;4.362;2022-12-18T10:12:28;0.70;99.90
14517;DHT22;7344;50.864;4.362;2022-12-18T10:15:21;0.60;99.90
14517;DHT22;7344;50.864;4.362;2022-12-18T10:20:46;0.70;99.90
14517;DHT22;7344;50.864;4.362;2022-12-18T10:28:30;0.90;99.90
14517;DHT22;7344;50.864;4.362;2022-12-18T10:30:56;0.90;99.90
14517;DHT22;7344;50.864;4.362;2022-12-18T10:33:27;0.90;99.90
14517;DHT22;7344;50.864;4.362;2022-12-18T10:35:53;0.90;99.90
14517;DHT22;7344;50.864;4.362;2022-12-18T10:40:58;1.00;99.90
14517;DHT22;7344;50.864;4.362;2022-12-18T10:43:31;1.00;99.90
14517;DHT22;7344;50.864;4.362;2022-12-18T10:46:04;1.00;99.90
14517;DHT22;7344;50.864;4.362;2022-12-18T10:51:06;1.10;99.90
14517;DHT22;7344;50.864;4.362;2022-12-18T10:53:33;1.00;99.90
14517;DHT22;7344;50.864;4.362;2022-12-18T10:56:00;1.00;99.90
14517;DHT22;7344;50.864;4.362;2022-12-18T10:58:31;1.10;99.90
14517;DHT22;7344;50.864;4.362;2022-12-18T11:01:17;1.20;99.90
14517;DHT22;7344;50.864;4.362;2022-12-18T11:06:22;1.30;99.90
14517;DHT22;7344;50.864;4.362;2022-12-18T11:09:03;1.40;99.90
14517;DHT22;7344;50.864;4.362;2022-12-18T11:11:31;1.50;99.90
14517;DHT22;7344;50.864;4.362;2022-12-18T11:14:04;1.60;99.90
14517;DHT22;7344;50.864;4.362;2022-12-18T11:16:34;1.80;99.90
14517;DHT22;7344;50.864;4.362;2022-12-18T11:20:18;2.10;99.90
14517;DHT22;7344;50.864;4.362;2022-12-18T11:22:20;2.10;99.90
14517;DHT22;7344;50.864;4.362;2022-12-18T11:25:04;2.20;99.90
14517;DHT22;7344;50.864;4.362;2022-12-18T11:27:31;2.40;99.90
14517;DHT22;7344;50.864;4.362;2022-12-18T11:33:13;2.40;99.70
14517;DHT22;7344;50.864;4.362;2022-12-18T11:35:59;2.50;99.40
14517;DHT22;7344;50.864;4.362;2022-12-18T11:38:42;2.40;98.60
14517;DHT22;7344;50.864;4.362;2022-12-18T11:43:58;2.30;99.40
14517;DHT22;7344;50.864;4.362;2022-12-18T11:46:36;2.40;99.30
14517;DHT22;7344;50.864;4.362;2022-12-18T11:49:25;2.50;99.20
14517;DHT22;7344;50.864;4.362;2022-12-18T11:52:27;2.40;98.60
14517;DHT22;7344;50.864;4.362;2022-12-18T11:54:58;2.30;99.20
14517;DHT22;7344;50.864;4.362;2022-12-18T12:00:03;2.30;99.90
14517;DHT22;7344;50.864;4.362;2022-12-18T12:07:57;2.20;99.90
14517;DHT22;7344;50.864;4.362;2022-12-18T12:15:58;2.20;99.90
14517;DHT22;7344;50.864;4.362;2022-12-18T12:21:42;2.40;99.90
14517;DHT22;7344;50.864;4.362;2022-12-18T12:40:18;2.30;99.90
14517;DHT22;7344;50.864;4.362;2022-12-18T12:42:52;2.40;99.90
14517;DHT22;7344;50.864;4.362;2022-12-18T12:48:48;2.50;99.90
14517;DHT22;7344;50.864;4.362;2022-12-18T12:51:29;2.50;99.90
14517;DHT22;7344;50.864;4.362;2022-12-18T12:53:57;2.50;99.90
14517;DHT22;7344;50.864;4.362;2022-12-18T12:56:30;2.50;99.90
14517;DHT22;7344;50.864;4.362;2022-12-18T13:01:59;2.50;99.90
14517;DHT22;7344;50.864;4.362;2022-12-18T13:04:29;2.60;99.90
14517;DHT22;7344;50.864;4.362;2022-12-18T13:07:16;2.60;99.90
14517;DHT22;7344;50.864;4.362;2022-12-18T13:15:43;2.70;99.90
14517;DHT22;7344;50.864;4.362;2022-12-18T13:20:40;2.60;99.90
14517;DHT22;7344;50.864;4.362;2022-12-18T13:34:18;2.20;99.90
14517;DHT22;7344;50.864;4.362;2022-12-18T13:36:45;2.20;99.90
14517;DHT22;7344;50.864;4.362;2022-12-18T13:44:59;2.50;99.90
14517;DHT22;7344;50.864;4.362;2022-12-18T13:47:32;2.50;99.90
14517;DHT22;7344;50.864;4.362;2022-12-18T13:50:00;2.50;99.90
14517;DHT22;7344;50.864;4.362;2022-12-18T13:52:28;2.40;99.90
14517;DHT22;7344;50.864;4.362;2022-12-18T13:54:59;2.50;99.90
14517;DHT22;7344;50.864;4.362;2022-12-18T13:57:31;2.40;99.90
14517;DHT22;7344;50.864;4.362;2022-12-18T13:59:58;2.40;99.90
14517;DHT22;7344;50.864;4.362;2022-12-18T14:02:26;2.40;99.90
14517;DHT22;7344;50.864;4.362;2022-12-18T14:04:52;2.50;99.90
14517;DHT22;7344;50.864;4.362;2022-12-18T14:10:00;2.40;99.90
14517;DHT22;7344;50.864;4.362;2022-12-18T14:12:29;2.40;99.90
14517;DHT22;7344;50.864;4.362;2022-12-18T14:17:45;2.40;99.90
14517;DHT22;7344;50.864;4.362;2022-12-18T14:20:14;2.50;99.90
14517;DHT22;7344;50.864;4.362;2022-12-18T14:22:45;2.50;99.90
14517;DHT22;7344;50.864;4.362;2022-12-18T14:25:28;2.50;99.90
14517;DHT22;7344;50.864;4.362;2022-12-18T14:30:36;2.60;99.90
14517;DHT22;7344;50.864;4.362;2022-12-18T14:33:05;2.50;99.90
14517;DHT22;7344;50.864;4.362;2022-12-18T14:35:34;2.50;99.90
14517;DHT22;7344;50.864;4.362;2022-12-18T14:40:41;2.30;99.90
14517;DHT22;7344;50.864;4.362;2022-12-18T14:43:10;2.20;99.90
14517;DHT22;7344;50.864;4.362;2022-12-18T14:45:36;2.20;99.90
14517;DHT22;7344;50.864;4.362;2022-12-18T14:48:06;2.10;99.90
14517;DHT22;7344;50.864;4.362;2022-12-18T14:50:32;2.10;99.90
14517;DHT22;7344;50.864;4.362;2022-12-18T14:52:58;2.10;99.90
14517;DHT22;7344;50.864;4.362;2022-12-18T14:55:24;2.00;99.90
14517;DHT22;7344;50.864;4.362;2022-12-18T14:57:52;2.00;99.90
14517;DHT22;7344;50.864;4.362;2022-12-18T15:00:21;2.00;99.90
14517;DHT22;7344;50.864;4.362;2022-12-18T15:02:55;2.00;99.90
14517;DHT22;7344;50.864;4.362;2022-12-18T15:05:25;2.00;99.90
14517;DHT22;7344;50.864;4.362;2022-12-18T15:07:55;2.00;99.90
14517;DHT22;7344;50.864;4.362;2022-12-18T15:10:32;2.00;99.90
14517;DHT22;7344;50.864;4.362;2022-12-18T15:26:10;2.20;99.90
14517;DHT22;7344;50.864;4.362;2022-12-18T15:28:54;2.20;99.90
14517;DHT22;7344;50.864;4.362;2022-12-18T15:31:30;2.20;99.90
14517;DHT22;7344;50.864;4.362;2022-12-18T15:36:25;2.20;99.90
14517;DHT22;7344;50.864;4.362;2022-12-18T15:38:55;2.20;99.90
14517;DHT22;7344;50.864;4.362;2022-12-18T15:41:22;2.30;99.90
14517;DHT22;7344;50.864;4.362;2022-12-18T15:43:49;2.30;99.90
14517;DHT22;7344;50.864;4.362;2022-12-18T15:48:46;2.20;99.90
14517;DHT22;7344;50.864;4.362;2022-12-18T15:51:16;2.30;99.90
14517;DHT22;7344;50.864;4.362;2022-12-18T15:53:43;2.20;99.90
14517;DHT22;7344;50.864;4.362;2022-12-18T15:56:11;2.20;99.90
14517;DHT22;7344;50.864;4.362;2022-12-18T15:58:55;2.30;99.90
14517;DHT22;7344;50.864;4.362;2022-12-18T16:01:23;2.30;99.90
14517;DHT22;7344;50.864;4.362;2022-12-18T16:03:49;2.30;99.90
14517;DHT22;7344;50.864;4.362;2022-12-18T16:06:15;2.30;99.90
14517;DHT22;7344;50.864;4.362;2022-12-18T16:08:40;2.30;99.90
14517;DHT22;7344;50.864;4.362;2022-12-18T16:11:16;2.30;99.90
14517;DHT22;7344;50.864;4.362;2022-12-18T16:13:45;2.30;99.90
14517;DHT22;7344;50.864;4.362;2022-12-18T16:16:10;2.40;99.90
14517;DHT22;7344;50.864;4.362;2022-12-18T16:18:36;2.40;99.90
14517;DHT22;7344;50.864;4.362;2022-12-18T16:21:02;2.40;99.90
14517;DHT22;7344;50.864;4.362;2022-12-18T16:23:28;2.40;99.90
14517;DHT22;7344;50.864;4.362;2022-12-18T16:25:53;2.40;99.90
14517;DHT22;7344;50.864;4.362;2022-12-18T16:28:19;2.40;99.90
14517;DHT22;7344;50.864;4.362;2022-12-18T16:30:44;2.50;99.90
14517;DHT22;7344;50.864;4.362;2022-12-18T16:33:10;2.50;99.90
14517;DHT22;7344;50.864;4.362;2022-12-18T16:35:36;2.50;99.90
14517;DHT22;7344;50.864;4.362;2022-12-18T16:38:02;2.50;99.90
14517;DHT22;7344;50.864;4.362;2022-12-18T16:40:28;2.40;99.90
14517;DHT22;7344;50.864;4.362;2022-12-18T16:42:56;2.50;99.90
14517;DHT22;7344;50.864;4.362;2022-12-18T16:45:22;2.40;99.90
14517;DHT22;7344;50.864;4.362;2022-12-18T16:47:47;2.40;99.90
14517;DHT22;7344;50.864;4.362;2022-12-18T16:50:13;2.50;99.90
14517;DHT22;7344;50.864;4.362;2022-12-18T16:52:39;2.40;99.90
14517;DHT22;7344;50.864;4.362;2022-12-18T16:55:05;2.50;99.90
14517;DHT22;7344;50.864;4.362;2022-12-18T16:57:31;2.50;99.90
14517;DHT22;7344;50.864;4.362;2022-12-18T16:59:57;2.50;99.90
14517;DHT22;7344;50.864;4.362;2022-12-18T17:02:24;2.50;99.90
14517;DHT22;7344;50.864;4.362;2022-12-18T17:04:55;2.60;99.90
14517;DHT22;7344;50.864;4.362;2022-12-18T17:07:21;2.60;99.90
14517;DHT22;7344;50.864;4.362;2022-12-18T17:09:47;2.70;99.90
14517;DHT22;7344;50.864;4.362;2022-12-18T17:12:14;2.60;99.90
14517;DHT22;7344;50.864;4.362;2022-12-18T17:14:40;2.60;99.90
14517;DHT22;7344;50.864;4.362;2022-12-18T17:17:06;2.70;99.90
14517;DHT22;7344;50.864;4.362;2022-12-18T17:19:32;2.70;99.90
14517;DHT22;7344;50.864;4.362;2022-12-18T17:21:58;2.80;99.90
14517;DHT22;7344;50.864;4.362;2022-12-18T17:24:23;2.80;99.90
14517;DHT22;7344;50.864;4.362;2022-12-18T17:26:49;2.80;99.90
14517;DHT22;7344;50.864;4.362;2022-12-18T17:29:18;2.80;99.90
14517;DHT22;7344;50.864;4.362;2022-12-18T17:31:44;2.70;99.90
14517;DHT22;7344;50.864;4.362;2022-12-18T17:34:11;2.70;99.90
14517;DHT22;7344;50.864;4.362;2022-12-18T17:36:37;2.70;99.90
14517;DHT22;7344;50.864;4.362;2022-12-18T17:39:04;2.60;99.90
14517;DHT22;7344;50.864;4.362;2022-12-18T17:41:31;2.60;99.90
14517;DHT22;7344;50.864;4.362;2022-12-18T17:43:59;2.80;99.90
14517;DHT22;7344;50.864;4.362;2022-12-18T17:46:27;2.70;99.90
14517;DHT22;7344;50.864;4.362;2022-12-18T17:48:55;2.60;99.90
14517;DHT22;7344;50.864;4.362;2022-12-18T17:51:20;2.60;99.90
14517;DHT22;7344;50.864;4.362;2022-12-18T17:53:46;2.50;99.90
14517;DHT22;7344;50.864;4.362;2022-12-18T17:56:13;2.50;99.90
14517;DHT22;7344;50.864;4.362;2022-12-18T17:58:40;2.40;99.90
14517;DHT22;7344;50.864;4.362;2022-12-18T18:01:06;2.40;99.90
14517;DHT22;7344;50.864;4.362;2022-12-18T18:03:33;2.30;99.90
14517;DHT22;7344;50.864;4.362;2022-12-18T18:06:00;2.30;99.90
14517;DHT22;7344;50.864;4.362;2022-12-18T18:08:27;2.30;99.90
14517;DHT22;7344;50.864;4.362;2022-12-18T18:10:53;2.30;99.90
14517;DHT22;7344;50.864;4.362;2022-12-18T18:13:25;2.30;99.90
14517;DHT22;7344;50.864;4.362;2022-12-18T18:16:10;2.30;99.90
14517;DHT22;7344;50.864;4.362;2022-12-18T18:18:37;2.30;99.90
14517;DHT22;7344;50.864;4.362;2022-12-18T18:21:07;2.30;99.90
14517;DHT22;7344;50.864;4.362;2022-12-18T18:23:33;2.30;99.90
14517;DHT22;7344;50.864;4.362;2022-12-18T18:26:04;2.30;99.90
14517;DHT22;7344;50.864;4.362;2022-12-18T18:28:30;2.30;99.90
14517;DHT22;7344;50.864;4.362;2022-12-18T18:30:55;2.20;99.90
14517;DHT22;7344;50.864;4.362;2022-12-18T18:33:21;2.20;99.90
14517;DHT22;7344;50.864;4.362;2022-12-18T18:35:46;2.20;99.90
14517;DHT22;7344;50.864;4.362;2022-12-18T18:38:12;2.20;99.90